Time;durP1;ratioP1;P1;durP2;ratioP2;P2;SDS_P1;SDS_P2;PMS_P1;PMS_P2;Temp;Humidity;BMP_temperature;BMP_pressure;BME280_temperature;BME280_humidity;BME280_pressure;Samples;Min_cycle;Max_cycle;Signal;HPM_P1;HPM_P2
2022/04/07 00:00:46;;;;;;;9.85;3.38;;;;;;;5.94;59.83;98766.13;5025403;28;20055;-80
2022/04/07 00:03:11;;;;;;;4.47;2.95;;;;;;;5.97;59.80;98759.00;5012025;28;20488;-82
2022/04/07 00:05:37;;;;;;;6.28;3.15;;;;;;;6.03;59.93;98756.06;5030229;28;20051;-81
2022/04/07 00:08:03;;;;;;;10.05;3.65;;;;;;;5.72;60.52;98758.66;5048718;28;20037;-80
2022/04/07 00:10:28;;;;;;;4.35;3.50;;;;;;;6.07;59.26;98742.00;5044067;28;20036;-82
2022/04/07 00:12:54;;;;;;;7.20;3.90;;;;;;;5.69;60.69;98751.06;5025739;28;20040;-84
2022/04/07 00:15:19;;;;;;;6.95;4.20;;;;;;;5.98;59.73;98737.34;5028297;28;20487;-82
2022/04/07 00:17:45;;;;;;;9.35;3.78;;;;;;;5.55;60.66;98729.31;5012967;28;20482;-83
2022/04/07 00:20:11;;;;;;;12.40;4.03;;;;;;;5.95;59.86;98736.66;5031112;28;20060;-83
2022/04/07 00:22:36;;;;;;;6.45;3.30;;;;;;;6.11;59.13;98727.13;5025367;28;20068;-82
2022/04/07 00:25:03;;;;;;;6.72;3.53;;;;;;;6.01;59.79;98718.19;5026913;28;20036;-76
2022/04/07 00:27:28;;;;;;;10.48;4.38;;;;;;;5.87;59.55;98719.78;5022134;28;20041;-83
2022/04/07 00:29:54;;;;;;;6.10;3.63;;;;;;;5.90;59.63;98713.56;5042138;28;20047;-81
2022/04/07 00:32:19;;;;;;;8.45;4.63;;;;;;;6.34;58.45;98709.47;5027515;28;20044;-83
2022/04/07 00:34:46;;;;;;;5.70;4.05;;;;;;;6.20;58.42;98697.25;5023652;28;20032;-84
2022/04/07 00:37:13;;;;;;;8.45;3.90;;;;;;;5.87;59.27;98690.41;5026087;28;20040;-84
2022/04/07 00:39:38;;;;;;;4.28;3.88;;;;;;;6.25;58.22;98687.44;5033078;28;20033;-81
2022/04/07 00:42:04;;;;;;;7.60;4.10;;;;;;;6.22;58.59;98679.84;5030162;28;20108;-83
2022/04/07 00:44:30;;;;;;;6.45;3.42;;;;;;;6.08;58.76;98673.69;5031847;28;20036;-81
2022/04/07 00:46:56;;;;;;;6.15;3.40;;;;;;;5.54;60.02;98665.41;5026593;28;20041;-80
2022/04/07 00:49:21;;;;;;;8.43;3.42;;;;;;;5.56;60.38;98670.53;5047482;28;20044;-79
2022/04/07 00:51:49;;;;;;;10.50;3.17;;;;;;;6.10;58.61;98660.59;5047358;28;20055;-83
2022/04/07 00:54:16;;;;;;;8.73;3.22;;;;;;;5.79;59.19;98661.47;5044092;28;20037;-81
2022/04/07 00:56:43;;;;;;;4.05;3.40;;;;;;;5.84;59.00;98656.91;5025665;28;20135;-78
2022/04/07 00:59:15;;;;;;;5.57;3.83;;;;;;;5.62;59.45;98637.34;5047629;28;20107;-80
2022/04/07 01:01:40;;;;;;;7.13;3.45;;;;;;;6.08;58.03;98644.28;5025246;28;20111;-81
2022/04/07 01:04:06;;;;;;;7.18;3.63;;;;;;;6.13;57.69;98637.09;5047409;28;20748;-85
2022/04/07 01:06:31;;;;;;;7.03;3.25;;;;;;;6.17;58.11;98632.56;5027564;28;20044;-83
2022/04/07 01:08:57;;;;;;;5.97;3.05;;;;;;;5.97;58.39;98637.16;5026488;28;20064;-80
2022/04/07 01:11:26;;;;;;;10.07;4.85;;;;;;;5.58;59.60;98633.25;5044398;28;20040;-81
2022/04/07 01:13:52;;;;;;;9.25;4.05;;;;;;;6.04;58.41;98635.03;5020641;28;20040;-82
2022/04/07 01:16:19;;;;;;;7.75;4.00;;;;;;;6.08;58.25;98633.91;5006920;28;20059;-82
2022/04/07 01:18:46;;;;;;;5.90;2.70;;;;;;;5.44;59.60;98620.22;5024489;28;20322;-81
2022/04/07 01:21:14;;;;;;;5.80;2.78;;;;;;;5.54;59.37;98613.59;5023995;28;20737;-79
2022/04/07 01:23:48;;;;;;;5.00;3.10;;;;;;;6.20;58.00;98612.47;5023748;28;20120;-81
2022/04/07 01:26:15;;;;;;;7.82;3.10;;;;;;;5.70;59.49;98608.41;5046679;28;20072;-83
2022/04/07 01:28:47;;;;;;;8.68;3.10;;;;;;;5.50;60.15;98596.53;5041468;28;20029;-75
2022/04/07 01:31:13;;;;;;;8.07;2.85;;;;;;;5.71;59.04;98607.50;5005605;28;20059;-85
2022/04/07 01:33:38;;;;;;;7.68;3.53;;;;;;;6.04;58.08;98603.91;5026465;28;20056;-81
2022/04/07 01:36:04;;;;;;;3.25;2.72;;;;;;;6.03;58.12;98589.25;5006334;28;20040;-81
2022/04/07 01:38:30;;;;;;;9.93;2.88;;;;;;;5.56;58.90;98574.66;5044349;28;20546;-80
2022/04/07 01:40:56;;;;;;;2.08;1.80;;;;;;;5.72;58.85;98578.03;5040871;28;20086;-80
2022/04/07 01:43:21;;;;;;;4.47;1.48;;;;;;;5.85;58.07;98570.41;5042108;28;20033;-78
2022/04/07 01:45:47;;;;;;;2.08;1.40;;;;;;;6.05;57.46;98572.69;5023972;28;20174;-81
2022/04/07 01:48:15;;;;;;;4.55;1.45;;;;;;;6.05;57.27;98562.31;5042913;28;20037;-83
2022/04/07 01:50:42;;;;;;;3.78;1.50;;;;;;;5.84;57.65;98553.22;5039522;28;20037;-80
2022/04/07 01:53:08;;;;;;;3.58;1.00;;;;;;;5.98;57.33;98550.63;5025894;28;20558;-81
2022/04/07 01:55:34;;;;;;;3.13;0.88;;;;;;;6.17;56.82;98549.56;5039642;28;20112;-81
2022/04/07 01:58:00;;;;;;;3.72;1.00;;;;;;;5.61;58.28;98552.75;5028623;28;20047;-84
2022/04/07 02:00:25;;;;;;;3.38;0.50;;;;;;;5.79;57.96;98552.59;5023137;28;20029;-83
2022/04/07 02:02:51;;;;;;;1.70;0.90;;;;;;;5.86;57.36;98538.41;5027520;28;20774;-80
2022/04/07 02:05:16;;;;;;;4.22;1.20;;;;;;;6.14;56.89;98521.22;5027943;28;20456;-82
2022/04/07 02:07:45;;;;;;;4.65;0.95;;;;;;;5.78;58.15;98517.25;5024444;28;20029;-83
2022/04/07 02:10:14;;;;;;;3.10;0.70;;;;;;;6.07;57.05;98526.75;5025347;28;20033;-80
2022/04/07 02:12:41;;;;;;;2.03;1.05;;;;;;;5.86;57.69;98518.50;5043187;28;20053;-81
2022/04/07 02:15:08;;;;;;;1.95;0.90;;;;;;;5.68;58.13;98514.34;5008912;28;20392;-82
2022/04/07 02:17:34;;;;;;;5.05;1.08;;;;;;;5.38;59.53;98511.75;5041464;28;20414;-82
2022/04/07 02:20:00;;;;;;;3.78;1.23;;;;;;;5.67;58.52;98505.75;5046766;28;20032;-83
2022/04/07 02:22:29;;;;;;;4.00;0.95;;;;;;;6.04;57.27;98508.81;4999416;28;20041;-81
2022/04/07 02:24:56;;;;;;;5.93;1.25;;;;;;;6.17;57.13;98495.09;5047880;28;20091;-83
2022/04/07 02:27:22;;;;;;;3.15;1.15;;;;;;;6.36;56.32;98498.28;5006034;28;20440;-84
2022/04/07 02:29:47;;;;;;;6.35;1.05;;;;;;;6.06;57.53;98493.97;5042973;28;20032;-80
2022/04/07 02:32:13;;;;;;;6.68;1.42;;;;;;;5.59;59.27;98495.00;5020823;28;20041;-78
2022/04/07 02:34:40;;;;;;;9.27;1.10;;;;;;;5.42;59.73;98476.97;5043296;28;20087;-83
2022/04/07 02:37:06;;;;;;;5.63;1.33;;;;;;;5.43;60.14;98481.22;5022092;28;20073;-80
2022/04/07 02:39:31;;;;;;;3.50;0.77;;;;;;;5.13;60.64;98487.22;5041269;28;20083;-78
2022/04/07 02:41:57;;;;;;;4.05;1.00;;;;;;;5.36;60.41;98474.72;5008576;28;20048;-80
2022/04/07 02:44:22;;;;;;;4.45;1.08;;;;;;;4.96;61.98;98471.78;5023300;28;20033;-78
2022/04/07 02:46:48;;;;;;;4.50;1.20;;;;;;;5.50;60.52;98467.00;5026008;28;20052;-81
2022/04/07 02:49:14;;;;;;;2.03;0.98;;;;;;;5.07;62.11;98466.84;5023658;28;20553;-80
2022/04/07 02:51:39;;;;;;;2.78;1.10;;;;;;;5.07;62.21;98459.06;5043964;28;20067;-77
2022/04/07 02:54:05;;;;;;;7.70;1.30;;;;;;;5.37;61.34;98450.47;5019529;28;20036;-81
2022/04/07 02:56:31;;;;;;;3.15;1.40;;;;;;;5.21;61.74;98443.63;5040736;28;20037;-77
2022/04/07 02:58:57;;;;;;;2.65;1.05;;;;;;;5.17;61.58;98439.53;5002598;28;20045;-79
2022/04/07 03:01:23;;;;;;;3.22;0.93;;;;;;;5.31;61.29;98423.19;5021398;28;20032;-77
2022/04/07 03:03:49;;;;;;;2.60;1.23;;;;;;;4.48;63.45;98435.53;5042773;28;20408;-81
2022/04/07 03:06:16;;;;;;;3.63;1.10;;;;;;;4.84;62.26;98422.31;5017406;28;20037;-81
2022/04/07 03:08:43;;;;;;;4.40;0.65;;;;;;;4.98;61.16;98403.47;5044386;28;20029;-80
2022/04/07 03:11:09;;;;;;;3.72;0.70;;;;;;;4.71;61.94;98416.16;5028365;28;20041;-81
2022/04/07 03:13:38;;;;;;;1.45;0.70;;;;;;;5.33;60.28;98410.16;5045738;28;20033;-82
2022/04/07 03:16:05;;;;;;;9.55;1.05;;;;;;;5.37;60.25;98409.91;5043671;28;20040;-81
2022/04/07 03:18:31;;;;;;;6.40;1.63;;;;;;;5.13;60.92;98395.75;5045154;28;20047;-78
2022/04/07 03:20:56;;;;;;;4.75;0.93;;;;;;;5.12;60.42;98400.09;5025425;28;20849;-80
2022/04/07 03:23:22;;;;;;;9.98;0.82;;;;;;;4.84;60.63;98380.91;5033120;28;20028;-79
2022/04/07 03:25:48;;;;;;;4.88;1.08;;;;;;;4.87;60.77;98379.06;5026917;28;20045;-80
2022/04/07 03:28:14;;;;;;;3.00;0.90;;;;;;;5.04;60.82;98373.81;5030113;28;20723;-79
2022/04/07 03:30:39;;;;;;;4.45;1.83;;;;;;;5.11;60.77;98364.78;5043107;28;20045;-83
2022/04/07 03:33:08;;;;;;;7.40;1.80;;;;;;;5.19;60.15;98349.63;5029060;28;20029;-81
2022/04/07 03:35:38;;;;;;;6.30;2.00;;;;;;;5.34;60.38;98347.06;5031202;28;20099;-79
2022/04/07 03:38:07;;;;;;;9.10;1.92;;;;;;;5.11;60.54;98336.28;5028540;28;20091;-81
2022/04/07 03:40:34;;;;;;;2.72;1.70;;;;;;;5.38;60.06;98333.84;5043891;28;20056;-82
2022/04/07 03:43:00;;;;;;;3.05;1.52;;;;;;;5.30;60.02;98341.25;5010049;28;20033;-81
2022/04/07 03:45:25;;;;;;;11.90;1.95;;;;;;;5.36;60.39;98325.31;5043944;28;20636;-82
2022/04/07 03:47:51;;;;;;;7.63;2.03;;;;;;;5.12;60.96;98306.88;5044416;28;20087;-77
2022/04/07 03:50:16;;;;;;;4.15;1.60;;;;;;;4.62;62.23;98305.41;5028242;28;20033;-80
2022/04/07 03:52:42;;;;;;;9.90;2.03;;;;;;;4.80;61.56;98294.00;5043386;28;20060;-82
2022/04/07 03:55:08;;;;;;;7.07;1.30;;;;;;;4.70;61.46;98285.13;5028927;28;20035;-80
2022/04/07 03:57:33;;;;;;;6.50;1.52;;;;;;;4.93;60.97;98278.66;5026479;28;20045;-81
2022/04/07 03:59:59;;;;;;;8.70;2.33;;;;;;;4.54;61.57;98269.63;5045529;28;20111;-78
2022/04/07 04:02:24;;;;;;;6.78;1.90;;;;;;;5.00;60.41;98267.00;5019502;28;20062;-82
2022/04/07 04:04:50;;;;;;;3.33;1.20;;;;;;;4.91;60.90;98257.19;5031766;28;20905;-81
2022/04/07 04:07:15;;;;;;;8.02;1.65;;;;;;;5.04;60.06;98249.53;5028150;28;20721;-81
2022/04/07 04:09:41;;;;;;;3.70;0.80;;;;;;;4.82;61.08;98250.75;5026723;28;20680;-79
2022/04/07 04:12:07;;;;;;;5.50;2.00;;;;;;;5.48;58.93;98250.38;5004124;28;20045;-79
2022/04/07 04:14:33;;;;;;;3.33;1.42;;;;;;;5.38;59.10;98240.59;5043664;28;20025;-80
2022/04/07 04:16:58;;;;;;;6.05;1.30;;;;;;;5.15;60.14;98243.75;5020946;28;20036;-82
2022/04/07 04:19:25;;;;;;;4.03;1.20;;;;;;;5.59;58.54;98232.44;5044257;28;20103;-77
2022/04/07 04:21:51;;;;;;;3.80;1.48;;;;;;;5.84;57.94;98234.34;5043336;28;20120;-78
2022/04/07 04:24:16;;;;;;;2.70;1.02;;;;;;;5.44;58.86;98237.63;5045831;28;20087;-79
2022/04/07 04:26:42;;;;;;;5.07;1.38;;;;;;;5.45;59.02;98220.31;5042758;28;20044;-80
2022/04/07 04:29:07;;;;;;;5.80;1.80;;;;;;;5.79;58.33;98223.41;5028370;28;20123;-82
2022/04/07 04:31:33;;;;;;;7.10;2.42;;;;;;;5.45;59.27;98215.13;5045456;28;20041;-81
2022/04/07 04:33:59;;;;;;;12.27;1.92;;;;;;;5.24;59.45;98192.22;5029941;28;20535;-81
2022/04/07 04:36:25;;;;;;;6.57;1.50;;;;;;;5.44;59.24;98196.19;5041814;28;20056;-81
2022/04/07 04:38:50;;;;;;;13.30;2.22;;;;;;;5.31;59.89;98191.84;5023720;28;20037;-80
2022/04/07 04:41:16;;;;;;;6.07;1.88;;;;;;;5.58;58.90;98190.13;5010197;28;20487;-82
2022/04/07 04:43:42;;;;;;;6.75;1.30;;;;;;;4.51;61.83;98181.03;5041150;28;20029;-78
2022/04/07 04:46:08;;;;;;;15.55;3.30;;;;;;;5.28;59.48;98166.13;5005960;28;20048;-81
2022/04/07 04:48:38;;;;;;;3.50;1.58;;;;;;;5.19;59.66;98168.38;5045033;28;20041;-79
2022/04/07 04:51:06;;;;;;;7.45;1.38;;;;;;;5.40;58.88;98184.34;5025217;28;20740;-79
2022/04/07 04:53:32;;;;;;;5.50;1.00;;;;;;;5.11;59.09;98168.00;5021710;28;20048;-81
2022/04/07 04:55:57;;;;;;;1.80;0.68;;;;;;;4.92;59.13;98159.66;5019684;28;20049;-81
2022/04/07 04:58:23;;;;;;;2.97;0.63;;;;;;;5.37;58.52;98170.72;5042881;28;20267;-81
2022/04/07 05:00:49;;;;;;;2.28;0.70;;;;;;;5.42;58.39;98163.53;5046109;28;20699;-84
2022/04/07 05:03:14;;;;;;;3.67;0.70;;;;;;;5.48;58.52;98159.72;5021743;28;20132;-80
2022/04/07 05:05:40;;;;;;;4.88;0.50;;;;;;;5.51;57.75;98154.34;5040296;28;20071;-82
2022/04/07 05:08:06;;;;;;;4.68;0.65;;;;;;;6.07;56.24;98145.56;5024056;28;20511;-81
2022/04/07 05:10:32;;;;;;;6.20;0.40;;;;;;;5.36;58.47;98132.81;5027837;28;20698;-80
2022/04/07 05:12:58;;;;;;;0.80;0.30;;;;;;;5.48;57.99;98126.88;5025674;28;20029;-79
2022/04/07 05:15:24;;;;;;;1.42;0.40;;;;;;;5.73;57.10;98125.34;5040701;28;20024;-82
2022/04/07 05:17:51;;;;;;;10.57;0.85;;;;;;;5.04;58.77;98100.22;5029515;28;20029;-79
2022/04/07 05:20:17;;;;;;;5.32;0.60;;;;;;;4.89;58.81;98116.69;5019632;28;20077;-83
2022/04/07 05:22:43;;;;;;;20.42;1.35;;;;;;;5.33;58.29;98104.53;5029227;28;20029;-82
2022/04/07 05:25:10;;;;;;;3.33;1.40;;;;;;;5.43;57.80;98097.81;5006217;28;20039;-81
2022/04/07 05:27:37;;;;;;;10.57;1.35;;;;;;;5.53;57.45;98114.47;5046454;28;20036;-80
2022/04/07 05:30:04;;;;;;;2.88;0.45;;;;;;;5.22;58.79;98090.47;5047591;28;20036;-84
2022/04/07 05:32:30;;;;;;;6.97;1.17;;;;;;;6.01;56.56;98099.28;5025277;28;20119;-82
2022/04/07 05:34:55;;;;;;;4.43;0.75;;;;;;;5.30;58.71;98091.75;5044158;28;20116;-81
2022/04/07 05:37:21;;;;;;;6.50;0.50;;;;;;;5.73;57.16;98104.59;5026303;28;20074;-81
2022/04/07 05:39:47;;;;;;;9.77;1.00;;;;;;;5.74;57.42;98101.91;5025201;28;20801;-77
2022/04/07 05:42:13;;;;;;;6.90;0.77;;;;;;;5.71;57.89;98088.31;5026100;28;20057;-77
2022/04/07 05:44:39;;;;;;;4.43;0.75;;;;;;;5.44;58.82;98089.16;5026915;28;20486;-83
2022/04/07 05:47:04;;;;;;;5.30;0.82;;;;;;;5.37;59.10;98067.97;5007962;28;20033;-81
2022/04/07 05:49:30;;;;;;;6.38;0.52;;;;;;;5.19;59.41;98062.19;5046122;28;20028;-81
2022/04/07 05:52:00;;;;;;;4.70;0.90;;;;;;;5.05;58.98;98064.81;5040481;28;20758;-79
2022/04/07 05:54:27;;;;;;;3.28;1.02;;;;;;;5.63;58.39;98053.34;5048693;28;20029;-84
2022/04/07 05:56:53;;;;;;;3.90;0.60;;;;;;;5.31;58.90;98052.00;5027830;28;20100;-80
2022/04/07 05:59:18;;;;;;;1.98;0.70;;;;;;;5.24;58.85;98043.78;5005288;28;20040;-83
2022/04/07 06:01:44;;;;;;;5.68;0.95;;;;;;;5.17;58.53;98043.34;5040502;28;20036;-84
2022/04/07 06:04:10;;;;;;;0.75;0.40;;;;;;;4.97;59.61;98033.41;5041774;28;20171;-82
2022/04/07 06:06:35;;;;;;;4.45;0.88;;;;;;;4.68;60.53;98030.81;5044203;28;20048;-80
2022/04/07 06:09:01;;;;;;;4.63;0.73;;;;;;;5.12;59.46;98044.53;5006498;28;20111;-83
2022/04/07 06:11:27;;;;;;;2.88;0.90;;;;;;;5.50;58.51;98042.09;5024874;28;20029;-82
2022/04/07 06:13:52;;;;;;;7.32;1.05;;;;;;;5.32;58.71;98038.09;5027569;28;20584;-80
2022/04/07 06:16:18;;;;;;;4.35;0.82;;;;;;;5.40;58.75;98026.34;5044582;28;20056;-78
2022/04/07 06:18:44;;;;;;;12.38;1.30;;;;;;;5.13;59.56;98026.31;5022389;28;20033;-81
2022/04/07 06:21:10;;;;;;;8.85;0.77;;;;;;;4.63;61.30;98002.63;5022895;28;20030;-79
2022/04/07 06:23:35;;;;;;;5.63;1.20;;;;;;;4.55;61.60;98012.59;5026322;28;20032;-80
2022/04/07 06:26:01;;;;;;;5.35;1.27;;;;;;;4.60;61.35;98015.75;5023824;28;20127;-79
2022/04/07 06:28:27;;;;;;;5.32;0.70;;;;;;;4.14;61.46;98010.75;5041547;28;20043;-80
2022/04/07 06:30:54;;;;;;;5.22;0.40;;;;;;;4.52;60.48;98006.78;5028165;28;20384;-80
2022/04/07 06:33:23;;;;;;;8.88;0.40;;;;;;;3.35;61.77;98029.06;5024948;28;20461;-80
2022/04/07 06:35:50;;;;;;;2.88;0.10;;;;;;;3.29;60.96;98040.59;5041309;28;20127;-80
2022/04/07 06:38:16;;;;;;;0.80;0.10;;;;;;;3.29;61.33;98050.91;5049468;28;20048;-79
2022/04/07 06:40:42;;;;;;;0.75;0.10;;;;;;;2.97;62.11;98044.88;5025679;28;20247;-80
2022/04/07 06:43:08;;;;;;;1.75;0.10;;;;;;;2.99;62.05;98040.47;5045573;28;20036;-80
2022/04/07 06:45:33;;;;;;;2.33;0.10;;;;;;;3.23;60.75;98037.47;5037211;28;20064;-76
2022/04/07 06:47:59;;;;;;;0.30;0.00;;;;;;;2.89;60.94;98022.06;5017403;28;20037;-81
2022/04/07 06:50:26;;;;;;;0.98;0.03;;;;;;;2.92;60.32;98027.06;5038085;28;20622;-80
2022/04/07 06:52:53;;;;;;;9.38;0.10;;;;;;;2.50;61.64;98027.59;5041058;28;20047;-81
2022/04/07 06:55:19;;;;;;;2.38;0.08;;;;;;;2.53;62.51;98043.75;5038813;28;20174;-79
2022/04/07 06:57:48;;;;;;;2.58;0.10;;;;;;;3.26;60.28;98050.19;5058885;28;20032;-78
2022/04/07 07:00:14;;;;;;;1.02;0.10;;;;;;;2.94;59.95;98039.88;5056551;28;20041;-78
2022/04/07 07:02:40;;;;;;;0.30;0.03;;;;;;;3.03;60.67;98033.41;5053391;28;20136;-77
2022/04/07 07:05:06;;;;;;;2.50;0.20;;;;;;;3.69;58.78;98011.66;5042069;28;20029;-78
2022/04/07 07:07:32;;;;;;;3.10;0.20;;;;;;;2.89;60.99;98009.19;4991741;28;20119;-79
2022/04/07 07:09:57;;;;;;;0.10;0.00;;;;;;;2.99;60.96;98017.25;5062267;28;20032;-79
2022/04/07 07:12:23;;;;;;;1.65;0.00;;;;;;;2.97;60.84;97986.34;5036220;28;20114;-78
2022/04/07 07:14:48;;;;;;;5.30;0.25;;;;;;;3.15;60.08;97966.44;5041185;28;20029;-81
2022/04/07 07:17:14;;;;;;;3.58;0.15;;;;;;;3.51;59.38;97975.63;5030862;28;20037;-77
2022/04/07 07:19:39;;;;;;;10.75;0.20;;;;;;;3.03;59.75;97985.19;5050963;28;20056;-79
2022/04/07 07:22:05;;;;;;;1.98;0.10;;;;;;;2.95;60.62;97970.13;5007722;28;20044;-80
2022/04/07 07:24:30;;;;;;;2.17;0.10;;;;;;;3.43;59.42;97952.03;5036810;28;20043;-79
2022/04/07 07:26:56;;;;;;;2.50;0.20;;;;;;;3.43;59.66;97958.94;5029330;28;20037;-84
2022/04/07 07:29:52;;;;;;;0.60;0.10;;;;;;;2.57;61.24;97930.94;5032271;28;20119;-78
2022/04/07 07:32:17;;;;;;;4.90;0.10;;;;;;;3.09;60.18;97941.00;5048966;28;20051;-79
2022/04/07 07:34:43;;;;;;;1.75;0.63;;;;;;;3.02;60.19;97949.16;5022696;28;20033;-80
2022/04/07 07:37:09;;;;;;;1.75;0.35;;;;;;;3.05;60.13;97929.19;5046486;28;20033;-80
2022/04/07 07:39:34;;;;;;;1.13;0.13;;;;;;;2.95;60.11;97928.84;5046403;28;20105;-80
2022/04/07 07:42:00;;;;;;;3.40;0.30;;;;;;;2.81;59.61;97941.69;5036710;28;20040;-80
2022/04/07 07:44:25;;;;;;;5.47;0.13;;;;;;;3.57;58.65;97940.88;5053680;28;20101;-80
2022/04/07 07:46:51;;;;;;;0.60;0.10;;;;;;;2.84;59.88;97941.50;5029983;28;20152;-84
2022/04/07 07:49:17;;;;;;;3.63;0.10;;;;;;;3.08;59.38;97920.44;5035147;28;20057;-78
2022/04/07 07:51:42;;;;;;;0.95;0.10;;;;;;;2.93;59.42;97915.19;5054864;28;20043;-81
2022/04/07 07:54:08;;;;;;;0.45;0.10;;;;;;;2.75;59.54;97880.94;5048025;28;20103;-78
2022/04/07 07:56:34;;;;;;;2.08;0.10;;;;;;;3.32;58.15;97884.69;5047764;28;20045;-79
2022/04/07 07:58:59;;;;;;;0.98;0.10;;;;;;;2.52;60.48;97879.63;5026270;28;20024;-79
2022/04/07 08:01:25;;;;;;;0.65;0.03;;;;;;;3.32;58.18;97874.34;5032546;28;20733;-80
2022/04/07 08:03:50;;;;;;;0.20;0.10;;;;;;;3.59;57.38;97875.31;5049380;28;20021;-80
2022/04/07 08:06:16;;;;;;;1.67;0.10;;;;;;;2.89;58.64;97889.66;5043356;28;20044;-79
2022/04/07 08:08:41;;;;;;;0.95;0.00;;;;;;;3.10;57.64;97892.78;5022416;28;20055;-80
2022/04/07 08:11:07;;;;;;;0.13;0.00;;;;;;;2.76;58.70;97908.41;5046732;28;20059;-79
2022/04/07 08:13:33;;;;;;;0.80;0.00;;;;;;;3.24;57.39;97879.09;5029903;28;20552;-81
2022/04/07 08:15:58;;;;;;;0.65;0.10;;;;;;;2.79;58.67;97853.22;5026452;28;20036;-79
2022/04/07 08:18:24;;;;;;;1.58;0.10;;;;;;;3.06;58.51;97879.22;5022894;28;20095;-82
2022/04/07 08:20:49;;;;;;;1.27;0.10;;;;;;;3.45;57.36;97864.97;5025244;28;20067;-79
2022/04/07 08:23:15;;;;;;;2.97;0.10;;;;;;;3.54;56.48;97843.78;5051179;28;20040;-79
2022/04/07 08:25:41;;;;;;;0.75;0.00;;;;;;;3.48;56.37;97859.63;5042835;28;20487;-78
2022/04/07 08:28:06;;;;;;;1.40;0.03;;;;;;;3.31;57.04;97862.34;5005589;28;20024;-78
2022/04/07 08:30:34;;;;;;;0.73;0.20;;;;;;;3.42;56.32;97872.88;5043299;28;20475;-80
2022/04/07 08:33:04;;;;;;;3.28;0.30;;;;;;;3.31;56.77;97872.69;5043715;28;20083;-79
2022/04/07 08:35:29;;;;;;;0.47;0.22;;;;;;;3.54;56.01;97874.75;5026005;28;20103;-77
2022/04/07 08:37:55;;;;;;;4.70;0.10;;;;;;;3.95;54.71;97852.53;5042906;28;20059;-81
2022/04/07 08:40:21;;;;;;;1.60;0.10;;;;;;;3.86;54.28;97837.59;5006997;28;20684;-79
2022/04/07 08:42:47;;;;;;;2.25;0.20;;;;;;;3.74;54.29;97849.50;5045911;28;20028;-79
2022/04/07 08:45:13;;;;;;;0.52;0.00;;;;;;;4.02;54.35;97852.06;5027970;28;20037;-79
2022/04/07 08:47:40;;;;;;;0.73;0.10;;;;;;;3.25;55.20;97848.03;5028920;28;20109;-79
2022/04/07 08:50:07;;;;;;;0.70;0.10;;;;;;;3.09;56.44;97866.16;5032547;28;20107;-78
2022/04/07 08:52:34;;;;;;;3.90;0.10;;;;;;;3.43;55.15;97840.16;5045351;28;20119;-75
2022/04/07 08:55:00;;;;;;;1.67;0.08;;;;;;;4.32;52.97;97851.09;5028462;28;20025;-79
2022/04/07 08:57:31;;;;;;;0.77;0.35;;;;;;;3.97;53.37;97854.09;5047083;28;20083;-82
2022/04/07 08:59:57;;;;;;;0.47;0.00;;;;;;;3.72;54.20;97856.50;5023912;28;20067;-80
2022/04/07 09:02:23;;;;;;;1.20;0.10;;;;;;;3.87;53.31;97865.91;5047671;28;20451;-75
2022/04/07 09:04:49;;;;;;;2.30;0.30;;;;;;;3.90;53.81;97863.16;5026877;28;20111;-80
2022/04/07 09:07:15;;;;;;;0.85;0.13;;;;;;;4.48;52.16;97860.50;5062336;28;20045;-78
2022/04/07 09:09:41;;;;;;;0.28;0.00;;;;;;;4.68;52.25;97860.06;5044330;28;20083;-80
2022/04/07 09:12:07;;;;;;;0.30;0.10;;;;;;;5.36;50.49;97853.91;5045441;28;20047;-81
2022/04/07 09:14:37;;;;;;;1.50;0.00;;;;;;;5.60;49.55;97855.81;5044858;28;20403;-81
2022/04/07 09:17:03;;;;;;;0.90;0.10;;;;;;;6.32;48.15;97819.72;5030582;28;20044;-79
2022/04/07 09:19:38;;;;;;;0.80;0.05;;;;;;;6.46;47.44;97848.13;5105268;27;20390;-73
2022/04/07 09:22:06;;;;;;;0.50;0.15;;;;;;;7.09;46.40;97840.16;5063175;27;20064;-73
2022/04/07 09:24:39;;;;;;;2.10;0.10;;;;;;;8.11;45.19;97821.13;5044953;28;20115;-73
2022/04/07 09:27:11;;;;;;;2.35;0.20;;;;;;;7.29;45.44;97823.09;5049609;28;20105;-73
2022/04/07 09:29:39;;;;;;;0.60;0.20;;;;;;;8.58;43.38;97823.50;5043804;28;20168;-73
2022/04/07 09:32:15;;;;;;;1.55;0.10;;;;;;;7.76;45.04;97821.28;5051148;28;20033;-73
2022/04/07 09:34:40;;;;;;;3.05;0.13;;;;;;;8.07;44.56;97813.66;5041537;28;20148;-74
2022/04/07 09:37:07;;;;;;;4.28;0.22;;;;;;;7.19;44.87;97812.53;5040195;28;20409;-72
2022/04/07 09:39:36;;;;;;;1.30;0.52;;;;;;;7.95;44.74;97820.66;5046839;28;20037;-73
2022/04/07 09:42:17;;;;;;;1.50;0.13;;;;;;;8.50;44.74;97807.69;5041449;28;20060;-74
2022/04/07 09:44:43;;;;;;;2.28;0.45;;;;;;;9.28;42.88;97805.72;5039002;28;20112;-72
2022/04/07 09:47:11;;;;;;;2.88;0.28;;;;;;;9.94;41.15;97797.53;5043908;28;20112;-73
2022/04/07 09:49:37;;;;;;;1.35;0.20;;;;;;;8.75;42.80;97806.56;5027822;28;20037;-74
2022/04/07 09:52:03;;;;;;;0.80;0.10;;;;;;;9.41;43.01;97795.91;5042558;28;20037;-73
2022/04/07 09:54:32;;;;;;;1.30;0.20;;;;;;;8.23;43.28;97772.50;5047264;28;20095;-74
2022/04/07 09:56:58;;;;;;;2.78;0.20;;;;;;;7.97;44.96;97792.75;5038476;28;20056;-73
2022/04/07 09:59:25;;;;;;;1.42;0.30;;;;;;;8.01;44.79;97790.75;5048840;28;20479;-72
2022/04/07 10:01:51;;;;;;;1.55;0.10;;;;;;;8.78;44.52;97782.84;5041197;28;20054;-75
2022/04/07 10:04:21;;;;;;;1.40;0.30;;;;;;;8.87;43.90;97782.09;5025432;28;20663;-75
2022/04/07 10:06:47;;;;;;;3.20;0.20;;;;;;;9.30;41.53;97775.94;5038501;28;20129;-74
2022/04/07 10:09:13;;;;;;;7.20;0.20;;;;;;;8.65;42.01;97764.78;5039959;28;20349;-73
2022/04/07 10:11:39;;;;;;;2.60;0.55;;;;;;;9.25;42.80;97761.63;5043429;28;20051;-73
2022/04/07 10:14:05;;;;;;;3.78;0.52;;;;;;;8.95;43.99;97758.03;5040573;28;20029;-73
2022/04/07 10:16:32;;;;;;;3.45;0.20;;;;;;;9.26;43.97;97756.31;5038428;28;20111;-74
2022/04/07 10:19:16;;;;;;;3.35;0.40;;;;;;;8.79;43.88;97747.25;5024781;28;20402;-73
2022/04/07 10:22:08;;;;;;;6.57;0.20;;;;;;;9.18;42.78;97743.91;5054340;28;20052;-74
2022/04/07 10:24:37;;;;;;;4.00;0.23;;;;;;;8.98;42.86;97745.59;5040640;28;20029;-75
2022/04/07 10:27:09;;;;;;;0.32;0.10;;;;;;;9.44;41.83;97727.03;5041585;28;20282;-73
2022/04/07 10:29:38;;;;;;;3.03;0.45;;;;;;;10.06;41.98;97738.22;5034052;28;20260;-75
2022/04/07 10:32:12;;;;;;;4.35;0.82;;;;;;;9.21;42.03;97729.81;5025421;28;20029;-74
2022/04/07 10:35:28;;;;;;;1.65;0.20;;;;;;;8.91;42.61;97710.56;5026124;28;20083;-74
2022/04/07 10:37:54;;;;;;;1.52;0.20;;;;;;;9.36;43.59;97718.06;5056377;28;20055;-73
2022/04/07 10:40:50;;;;;;;3.47;0.10;;;;;;;8.41;42.86;97707.75;5059954;28;20048;-73
2022/04/07 10:43:25;;;;;;;4.90;0.35;;;;;;;8.33;43.53;97704.94;5067148;28;20036;-73
2022/04/07 10:46:05;;;;;;;3.80;0.43;;;;;;;8.00;44.38;97703.25;5055308;28;20052;-73
2022/04/07 10:48:33;;;;;;;3.95;0.40;;;;;;;7.70;45.32;97705.56;5057603;28;20068;-75
2022/04/07 10:51:03;;;;;;;4.22;0.80;;;;;;;7.94;44.81;97691.59;5048080;28;20521;-74
2022/04/07 10:53:35;;;;;;;3.45;0.88;;;;;;;8.17;43.62;97683.72;5050076;28;20040;-74
2022/04/07 10:56:21;;;;;;;7.90;0.30;;;;;;;7.88;44.27;97674.69;5046158;28;20044;-74
2022/04/07 10:58:49;;;;;;;4.97;0.30;;;;;;;8.51;44.01;97680.00;5035145;28;20265;-73
2022/04/07 11:01:16;;;;;;;1.35;0.20;;;;;;;8.24;44.64;97674.47;5049487;28;20162;-73
2022/04/07 11:04:26;;;;;;;4.20;0.60;;;;;;;8.61;43.80;97679.25;5048452;28;20413;-73
2022/04/07 11:07:17;;;;;;;5.45;0.43;;;;;;;7.45;44.02;97678.06;5054671;28;20063;-74
2022/04/07 11:09:44;;;;;;;3.00;0.20;;;;;;;7.47;46.55;97696.13;5049037;28;20068;-75
2022/04/07 11:12:28;;;;;;;7.97;0.40;;;;;;;6.39;50.38;97711.16;5048318;28;20072;-72
2022/04/07 11:15:18;;;;;;;4.57;1.27;;;;;;;5.67;54.14;97732.66;5064753;28;20127;-72
2022/04/07 11:17:46;;;;;;;5.72;0.25;;;;;;;5.30;55.63;97719.69;5044168;28;20045;-72
2022/04/07 11:20:23;;;;;;;4.68;0.20;;;;;;;6.14;52.87;97715.50;5049675;28;20425;-72
2022/04/07 11:23:05;;;;;;;4.35;0.45;;;;;;;6.92;50.73;97721.94;5046237;28;20056;-73
2022/04/07 11:25:47;;;;;;;3.05;0.10;;;;;;;7.58;51.39;97716.94;5044276;28;20044;-73
2022/04/07 11:28:22;;;;;;;1.30;0.30;;;;;;;7.33;50.72;97702.38;5047981;28;20046;-72
2022/04/07 11:30:50;;;;;;;6.03;0.63;;;;;;;7.63;49.27;97717.41;5051716;28;20040;-72
2022/04/07 11:33:25;;;;;;;2.92;0.30;;;;;;;6.77;48.99;97726.50;5047554;28;20063;-71
2022/04/07 11:36:00;;;;;;;3.35;0.30;;;;;;;5.26;51.99;97744.13;5045429;28;20261;-71
2022/04/07 11:38:27;;;;;;;0.35;0.00;;;;;;;5.49;53.01;97737.38;5048352;28;20041;-74
2022/04/07 11:41:04;;;;;;;2.72;0.20;;;;;;;5.19;51.64;97702.28;5046742;28;20175;-72
2022/04/07 11:43:30;;;;;;;0.70;0.10;;;;;;;6.17;52.20;97717.91;5045850;28;20497;-73